createdAt,value
2018-11-07T00:00:00.108Z,21.02
2018-11-07T00:00:38.023Z,21.02
2018-11-07T00:01:15.610Z,21.02
2018-11-07T00:01:53.272Z,21.03
2018-11-07T00:02:30.856Z,21.01
2018-11-07T00:03:08.431Z,21.01
2018-11-07T00:03:46.159Z,21.01
2018-11-07T00:04:23.634Z,21.01
2018-11-07T00:05:01.320Z,21.02
2018-11-07T00:05:38.970Z,21.01
2018-11-07T00:06:16.483Z,21.01
2018-11-07T00:06:54.260Z,21.01
2018-11-07T00:07:31.950Z,21.00
2018-11-07T00:08:09.813Z,21.01
2018-11-07T00:08:47.521Z,21.01
2018-11-07T00:09:25.182Z,21.01
2018-11-07T00:10:02.749Z,21.01
2018-11-07T00:10:40.506Z,21.01
2018-11-07T00:11:18.154Z,21.00
2018-11-07T00:11:55.738Z,21.01
2018-11-07T00:12:33.413Z,21.00
2018-11-07T00:13:11.098Z,21.01
2018-11-07T00:13:48.996Z,21.01
2018-11-07T00:14:26.570Z,21.00
2018-11-07T00:15:04.033Z,21.00
2018-11-07T00:15:41.846Z,21.00
2018-11-07T00:16:19.541Z,21.00
2018-11-07T00:16:57.169Z,21.01
2018-11-07T00:17:34.674Z,21.00
2018-11-07T00:18:12.200Z,21.00
2018-11-07T00:18:49.751Z,21.00
2018-11-07T00:19:27.456Z,21.00
2018-11-07T00:20:04.947Z,20.99
2018-11-07T00:20:42.402Z,21.01
2018-11-07T00:21:20.062Z,20.99
2018-11-07T00:21:57.641Z,21.00
2018-11-07T00:22:35.342Z,21.00
2018-11-07T00:23:12.945Z,20.99
2018-11-07T00:23:50.667Z,20.99
2018-11-07T00:24:28.151Z,21.00
2018-11-07T00:25:05.801Z,20.99
2018-11-07T00:25:43.285Z,20.99
2018-11-07T00:26:20.821Z,20.99
2018-11-07T00:26:58.301Z,20.99
2018-11-07T00:27:35.758Z,20.99
2018-11-07T00:28:13.264Z,20.99
2018-11-07T00:28:50.975Z,20.99
2018-11-07T00:29:28.589Z,21.00
2018-11-07T00:30:06.348Z,21.00
2018-11-07T00:30:43.863Z,21.00
2018-11-07T00:31:21.402Z,21.00
2018-11-07T00:31:59.187Z,20.99
2018-11-07T00:32:37.075Z,20.99
2018-11-07T00:33:14.853Z,20.98
2018-11-07T00:33:52.363Z,20.99
2018-11-07T00:34:30.025Z,21.00
2018-11-07T00:35:07.511Z,21.00
2018-11-07T00:35:45.147Z,20.99
2018-11-07T00:36:23.641Z,21.01
2018-11-07T00:37:01.561Z,20.99
2018-11-07T00:37:39.283Z,20.99
2018-11-07T00:38:16.870Z,21.00
2018-11-07T00:38:54.562Z,21.00
2018-11-07T00:39:32.107Z,20.99
2018-11-07T00:40:09.913Z,20.99
2018-11-07T00:40:47.670Z,20.98
2018-11-07T00:41:25.304Z,21.02
2018-11-07T00:42:46.083Z,21.00
2018-11-07T00:43:23.757Z,21.00
2018-11-07T00:44:01.494Z,21.01
2018-11-07T00:44:39.043Z,21.00
2018-11-07T00:45:16.586Z,20.99
2018-11-07T00:45:54.380Z,20.99
2018-11-07T00:46:32.098Z,21.00
2018-11-07T00:47:09.844Z,20.99
2018-11-07T00:47:47.527Z,20.99
2018-11-07T00:48:25.095Z,20.99
2018-11-07T00:49:02.602Z,20.99
2018-11-07T00:49:40.230Z,20.99
2018-11-07T00:50:17.902Z,20.98
2018-11-07T00:50:55.669Z,20.99
2018-11-07T00:51:33.257Z,20.99
2018-11-07T00:52:10.759Z,20.99
2018-11-07T00:52:48.328Z,20.99
2018-11-07T00:53:25.968Z,20.98
2018-11-07T00:54:03.621Z,21.00
2018-11-07T00:54:41.213Z,20.98
2018-11-07T00:55:18.695Z,20.98
2018-11-07T00:55:56.304Z,20.98
2018-11-07T00:56:34.097Z,20.98
2018-11-07T00:57:11.574Z,20.98
2018-11-07T00:57:49.030Z,20.97
2018-11-07T00:58:26.615Z,20.97
2018-11-07T00:59:04.215Z,20.98
2018-11-07T00:59:41.772Z,20.98
2018-11-07T01:00:19.424Z,20.98
2018-11-07T01:00:56.921Z,20.98
2018-11-07T01:01:34.551Z,20.97
2018-11-07T01:02:12.007Z,20.97
2018-11-07T01:02:49.630Z,20.97
2018-11-07T01:03:27.380Z,20.97
2018-11-07T01:04:05.091Z,20.98
2018-11-07T01:04:42.737Z,20.97
2018-11-07T01:05:20.197Z,20.98
2018-11-07T01:05:57.714Z,20.97
2018-11-07T01:06:35.477Z,20.97
2018-11-07T01:07:13.202Z,20.97
2018-11-07T01:07:50.945Z,20.97
2018-11-07T01:08:28.539Z,20.98
2018-11-07T01:09:06.126Z,20.98
2018-11-07T01:09:43.886Z,20.96
2018-11-07T01:10:21.378Z,20.98
2018-11-07T01:10:59.022Z,20.97
2018-11-07T01:11:36.575Z,20.98
2018-11-07T01:12:14.178Z,20.98
2018-11-07T01:12:51.801Z,20.96
2018-11-07T01:13:29.346Z,20.97
2018-11-07T01:14:06.825Z,20.97
2018-11-07T01:14:44.476Z,20.98
2018-11-07T01:15:22.078Z,20.98
2018-11-07T01:15:59.662Z,20.98
2018-11-07T01:16:37.259Z,20.98
2018-11-07T01:17:14.779Z,20.98
2018-11-07T01:17:52.373Z,20.98
2018-11-07T01:18:29.772Z,20.97
2018-11-07T01:19:07.410Z,20.96
2018-11-07T01:19:44.928Z,20.98
2018-11-07T01:20:22.573Z,20.97
2018-11-07T01:21:00.045Z,20.97
2018-11-07T01:22:21.498Z,20.96
2018-11-07T01:22:58.947Z,20.97
2018-11-07T01:23:36.363Z,20.96
2018-11-07T01:24:13.933Z,20.97
2018-11-07T01:24:51.524Z,20.97
2018-11-07T01:25:29.041Z,20.97
2018-11-07T01:26:06.556Z,20.98
2018-11-07T01:26:44.258Z,20.97
2018-11-07T01:27:21.885Z,20.97
2018-11-07T01:27:59.462Z,20.97
2018-11-07T01:28:37.066Z,20.96
2018-11-07T01:29:14.755Z,20.95
2018-11-07T01:29:52.527Z,20.95
2018-11-07T01:30:30.119Z,20.96
2018-11-07T01:31:07.662Z,20.96
2018-11-07T01:31:45.181Z,20.98
2018-11-07T01:32:22.785Z,20.99
2018-11-07T01:33:00.341Z,20.98
2018-11-07T01:33:37.755Z,20.99
2018-11-07T01:34:15.388Z,20.98
2018-11-07T01:34:53.017Z,20.96
2018-11-07T01:35:30.562Z,20.97
2018-11-07T01:36:08.065Z,20.98
2018-11-07T01:36:45.779Z,20.96
2018-11-07T01:37:23.398Z,20.96
2018-11-07T01:38:00.932Z,20.97
2018-11-07T01:38:38.509Z,20.96
2018-11-07T01:39:16.173Z,20.97
2018-11-07T01:39:53.782Z,20.98
2018-11-07T01:40:31.660Z,20.96
2018-11-07T01:41:09.400Z,20.97
2018-11-07T01:41:46.931Z,20.96
2018-11-07T01:42:24.426Z,20.97
2018-11-07T01:43:02.073Z,20.96
2018-11-07T01:43:39.560Z,20.96
2018-11-07T01:44:17.166Z,20.96
2018-11-07T01:44:54.972Z,20.96
2018-11-07T01:45:32.457Z,20.96
2018-11-07T01:46:09.979Z,20.96
2018-11-07T01:46:47.476Z,20.96
2018-11-07T01:47:25.122Z,20.96
2018-11-07T01:48:02.696Z,20.95
2018-11-07T01:48:40.307Z,20.96
2018-11-07T01:49:17.955Z,20.95
2018-11-07T01:49:55.739Z,20.95
2018-11-07T01:50:33.314Z,20.96
2018-11-07T01:51:11.059Z,20.96
2018-11-07T01:51:48.491Z,20.96
2018-11-07T01:52:26.027Z,20.96
2018-11-07T01:53:03.906Z,20.95
2018-11-07T01:53:41.425Z,20.95
2018-11-07T01:54:19.123Z,20.95
2018-11-07T01:54:56.819Z,20.96
2018-11-07T01:55:34.435Z,20.94
2018-11-07T01:56:12.215Z,20.95
2018-11-07T01:56:49.924Z,20.94
2018-11-07T01:57:27.486Z,20.94
2018-11-07T01:58:04.966Z,20.94
2018-11-07T01:58:42.855Z,20.94
2018-11-07T01:59:20.987Z,20.94
2018-11-07T01:59:58.498Z,20.94
2018-11-07T02:00:36.102Z,20.94
2018-11-07T02:01:13.739Z,20.93
2018-11-07T02:01:51.454Z,20.94
2018-11-07T02:02:29.055Z,20.93
2018-11-07T02:03:06.707Z,20.94
2018-11-07T02:03:44.168Z,20.93
2018-11-07T02:04:21.870Z,20.93
2018-11-07T02:04:59.373Z,20.93
2018-11-07T02:05:36.987Z,20.94
2018-11-07T02:06:14.657Z,20.94
2018-11-07T02:06:52.144Z,20.94
2018-11-07T02:07:29.758Z,20.93
2018-11-07T02:08:07.397Z,20.95
2018-11-07T02:08:45.014Z,20.94
2018-11-07T02:09:22.733Z,20.94
2018-11-07T02:10:00.236Z,20.94
2018-11-07T02:10:37.882Z,20.94
2018-11-07T02:11:15.708Z,20.94
2018-11-07T02:11:53.306Z,20.94
2018-11-07T02:12:30.823Z,20.94
2018-11-07T02:13:08.464Z,20.94
2018-11-07T02:13:46.076Z,20.93
2018-11-07T02:14:23.660Z,20.94
2018-11-07T02:15:01.282Z,20.94
2018-11-07T02:15:38.979Z,20.93
2018-11-07T02:16:16.503Z,20.95
2018-11-07T02:16:54.144Z,20.94
2018-11-07T02:17:32.014Z,20.94
2018-11-07T02:18:09.556Z,20.94
2018-11-07T02:18:47.121Z,20.95
2018-11-07T02:19:24.845Z,20.94
2018-11-07T02:20:02.907Z,20.94
2018-11-07T02:20:40.492Z,20.93
2018-11-07T02:21:18.102Z,20.94
2018-11-07T02:21:55.570Z,20.94
2018-11-07T02:22:33.029Z,20.94
2018-11-07T02:23:10.570Z,20.93
2018-11-07T02:23:48.298Z,20.94
2018-11-07T02:24:26.018Z,20.93
2018-11-07T02:25:03.932Z,20.94
2018-11-07T02:25:41.427Z,20.95
2018-11-07T02:26:19.134Z,20.94
2018-11-07T02:26:56.628Z,20.93
2018-11-07T02:27:34.426Z,20.93
2018-11-07T02:28:12.316Z,20.93
2018-11-07T02:28:49.841Z,20.92
2018-11-07T02:29:27.333Z,20.92
2018-11-07T02:30:05.055Z,20.94
2018-11-07T02:30:42.538Z,20.94
2018-11-07T02:31:20.322Z,20.93
2018-11-07T02:31:57.950Z,20.92
2018-11-07T02:32:35.594Z,20.93
2018-11-07T02:33:13.176Z,20.92
2018-11-07T02:33:50.739Z,20.93
2018-11-07T02:34:28.313Z,20.94
2018-11-07T02:35:06.254Z,20.93
2018-11-07T02:35:44.040Z,20.94
2018-11-07T02:36:21.723Z,20.94
2018-11-07T02:36:59.278Z,20.93
2018-11-07T02:37:36.914Z,20.95
2018-11-07T02:38:14.396Z,20.93
2018-11-07T02:38:51.996Z,20.93
2018-11-07T02:39:29.697Z,20.92
2018-11-07T02:40:07.421Z,20.92
2018-11-07T02:40:45.131Z,20.92
2018-11-07T02:41:22.614Z,20.92
2018-11-07T02:42:00.375Z,20.91
2018-11-07T02:42:37.909Z,20.92
2018-11-07T02:43:15.490Z,20.90
2018-11-07T02:43:53.319Z,20.90
2018-11-07T02:44:30.919Z,20.90
2018-11-07T02:45:08.742Z,20.91
2018-11-07T02:45:46.577Z,20.91
2018-11-07T02:46:24.326Z,20.91
2018-11-07T02:47:01.947Z,20.90
2018-11-07T02:47:39.581Z,20.92
2018-11-07T02:48:17.160Z,20.90
2018-11-07T02:48:54.661Z,20.93
2018-11-07T02:49:32.322Z,20.93
2018-11-07T02:50:09.887Z,20.93
2018-11-07T02:50:47.535Z,20.93
2018-11-07T02:51:24.996Z,20.93
2018-11-07T02:52:02.678Z,20.93
2018-11-07T02:52:40.352Z,20.93
2018-11-07T02:53:17.857Z,20.91
2018-11-07T02:53:55.362Z,20.92
2018-11-07T02:54:33.140Z,20.90
2018-11-07T02:55:10.764Z,20.91
2018-11-07T02:55:48.329Z,20.91
2018-11-07T02:56:25.977Z,20.90
2018-11-07T02:57:03.645Z,20.92
2018-11-07T02:57:41.146Z,20.92
2018-11-07T02:58:18.838Z,20.94
2018-11-07T02:58:56.518Z,20.95
2018-11-07T02:59:34.061Z,20.94
2018-11-07T03:00:11.773Z,20.94
2018-11-07T03:00:49.516Z,20.93
2018-11-07T03:01:27.207Z,20.92
2018-11-07T03:02:04.816Z,20.90
2018-11-07T03:02:42.506Z,20.93
2018-11-07T03:03:20.303Z,20.91
2018-11-07T03:03:57.801Z,20.90
2018-11-07T03:04:35.382Z,20.90
2018-11-07T03:05:13.071Z,20.90
2018-11-07T03:05:50.663Z,20.90
2018-11-07T03:06:28.205Z,20.92
2018-11-07T03:07:05.765Z,20.90
2018-11-07T03:07:43.383Z,20.89
2018-11-07T03:08:21.012Z,20.90
2018-11-07T03:08:58.796Z,20.92
2018-11-07T03:09:36.120Z,20.90
2018-11-07T03:10:13.841Z,20.90
2018-11-07T03:10:51.607Z,20.89
2018-11-07T03:11:29.128Z,20.90
2018-11-07T03:12:06.646Z,20.90
2018-11-07T03:12:44.466Z,20.89
2018-11-07T03:13:22.173Z,20.89
2018-11-07T03:13:59.925Z,20.89
2018-11-07T03:14:37.550Z,20.92
2018-11-07T03:15:15.058Z,20.91
2018-11-07T03:15:52.909Z,20.91
2018-11-07T03:16:30.690Z,20.92
2018-11-07T03:17:08.457Z,20.90
2018-11-07T03:17:45.916Z,20.92
2018-11-07T03:18:23.652Z,20.92
2018-11-07T03:19:01.348Z,20.91
2018-11-07T03:19:38.845Z,20.89
2018-11-07T03:20:16.407Z,20.90
2018-11-07T03:20:54.069Z,20.89
2018-11-07T03:21:31.546Z,20.91
2018-11-07T03:22:09.170Z,20.91
2018-11-07T03:22:47.018Z,20.90
2018-11-07T03:23:24.699Z,20.90
2018-11-07T03:24:02.135Z,20.89
2018-11-07T03:24:39.735Z,20.89
2018-11-07T03:25:17.376Z,20.88
2018-11-07T03:25:54.882Z,20.88
2018-11-07T03:26:32.461Z,20.89
2018-11-07T03:27:10.193Z,20.89
2018-11-07T03:27:47.782Z,20.89
2018-11-07T03:28:25.386Z,20.90
2018-11-07T03:29:02.968Z,20.90
2018-11-07T03:29:40.510Z,20.89
2018-11-07T03:30:18.277Z,20.89
2018-11-07T03:30:56.191Z,20.89
2018-11-07T03:31:33.806Z,20.89
2018-11-07T03:32:11.244Z,20.89
2018-11-07T03:32:48.856Z,20.89
2018-11-07T03:33:26.497Z,20.90
2018-11-07T03:34:04.201Z,20.90
2018-11-07T03:34:41.986Z,20.89
2018-11-07T03:35:19.906Z,20.89
2018-11-07T03:35:57.688Z,20.93
2018-11-07T03:36:35.355Z,20.93
2018-11-07T03:37:13.004Z,20.92
2018-11-07T03:37:50.706Z,20.92
2018-11-07T03:38:28.371Z,20.91
2018-11-07T03:39:06.183Z,20.90
2018-11-07T03:39:43.760Z,20.89
2018-11-07T03:40:21.375Z,20.89
2018-11-07T03:40:59.054Z,20.88
2018-11-07T03:41:36.715Z,20.89
2018-11-07T03:42:14.430Z,20.88
2018-11-07T03:42:52.012Z,20.89
2018-11-07T03:43:29.516Z,20.89
2018-11-07T03:44:07.171Z,20.88
2018-11-07T03:44:44.617Z,20.90
2018-11-07T03:45:22.335Z,20.90
2018-11-07T03:45:59.885Z,20.92
2018-11-07T03:46:37.436Z,20.91
2018-11-07T03:47:15.039Z,20.90
2018-11-07T03:47:52.557Z,20.90
2018-11-07T03:48:30.141Z,20.89
2018-11-07T03:49:07.634Z,20.89
2018-11-07T03:49:45.276Z,20.90
2018-11-07T03:50:23.119Z,20.90
2018-11-07T03:51:00.751Z,20.90
2018-11-07T03:51:38.297Z,20.92
2018-11-07T03:52:59.742Z,20.89
2018-11-07T03:53:37.301Z,20.90
2018-11-07T03:54:15.062Z,20.89
2018-11-07T03:54:52.533Z,20.90
2018-11-07T03:55:30.396Z,20.93
2018-11-07T03:56:08.017Z,20.90
2018-11-07T03:56:45.738Z,20.90
2018-11-07T03:57:23.167Z,20.90
2018-11-07T03:58:00.680Z,20.90
2018-11-07T03:58:38.437Z,20.93
2018-11-07T03:59:16.156Z,20.90
2018-11-07T03:59:53.795Z,20.90
2018-11-07T04:00:31.447Z,20.89
2018-11-07T04:01:09.128Z,20.88
2018-11-07T04:01:46.805Z,20.87
2018-11-07T04:02:24.489Z,20.88
2018-11-07T04:03:02.117Z,20.87
2018-11-07T04:03:39.795Z,20.87
2018-11-07T04:04:17.408Z,20.90
2018-11-07T04:04:54.858Z,20.89
2018-11-07T04:05:32.488Z,20.89
2018-11-07T04:06:10.088Z,20.89
2018-11-07T04:06:47.878Z,20.88
2018-11-07T04:07:25.545Z,20.87
2018-11-07T04:08:03.150Z,20.86
2018-11-07T04:08:40.806Z,20.88
2018-11-07T04:09:18.369Z,20.88
2018-11-07T04:09:55.952Z,20.89
2018-11-07T04:10:33.541Z,20.88
2018-11-07T04:11:11.248Z,20.88
2018-11-07T04:11:48.895Z,20.87
2018-11-07T04:12:26.680Z,20.93
2018-11-07T04:13:04.337Z,20.92
2018-11-07T04:13:42.225Z,20.90
2018-11-07T04:14:19.871Z,20.90
2018-11-07T04:14:57.382Z,20.90
2018-11-07T04:15:35.028Z,20.92
2018-11-07T04:16:12.558Z,20.92
2018-11-07T04:16:50.206Z,20.94
2018-11-07T04:17:27.865Z,20.95
2018-11-07T04:18:05.390Z,20.94
2018-11-07T04:18:43.084Z,20.97
2018-11-07T04:19:20.653Z,20.96
2018-11-07T04:19:58.314Z,20.95
2018-11-07T04:20:36.023Z,20.94
2018-11-07T04:21:13.554Z,20.94
2018-11-07T04:21:51.169Z,20.97
2018-11-07T04:22:28.806Z,20.96
2018-11-07T04:23:06.421Z,20.97
2018-11-07T04:23:44.012Z,20.96
2018-11-07T04:24:21.600Z,20.97
2018-11-07T04:24:59.152Z,20.96
2018-11-07T04:25:36.756Z,21.00
2018-11-07T04:26:14.437Z,21.01
2018-11-07T04:26:52.067Z,20.99
2018-11-07T04:27:29.634Z,20.99
2018-11-07T04:28:07.492Z,20.97
2018-11-07T04:28:45.196Z,20.95
2018-11-07T04:29:22.741Z,20.96
2018-11-07T04:30:00.423Z,20.99
2018-11-07T04:30:38.006Z,20.99
2018-11-07T04:31:15.831Z,20.99
2018-11-07T04:31:53.331Z,20.96
2018-11-07T04:32:31.061Z,20.97
2018-11-07T04:33:08.540Z,20.96
2018-11-07T04:33:46.073Z,20.94
2018-11-07T04:34:23.763Z,20.98
2018-11-07T04:35:01.390Z,20.97
2018-11-07T04:35:38.895Z,20.97
2018-11-07T04:36:16.495Z,20.98
2018-11-07T04:36:54.357Z,20.98
2018-11-07T04:37:32.015Z,20.96
2018-11-07T04:38:09.593Z,21.00
2018-11-07T04:38:47.137Z,20.99
2018-11-07T04:39:24.721Z,20.97
2018-11-07T04:40:02.452Z,20.96
2018-11-07T04:40:40.039Z,21.01
2018-11-07T04:41:17.504Z,20.98
2018-11-07T04:41:55.070Z,20.97
2018-11-07T04:42:32.718Z,20.97
2018-11-07T04:43:10.284Z,20.98
2018-11-07T04:43:47.866Z,20.99
2018-11-07T04:44:25.619Z,21.00
2018-11-07T04:45:03.250Z,20.99
2018-11-07T04:45:40.867Z,21.00
2018-11-07T04:46:18.494Z,21.00
2018-11-07T04:46:56.189Z,21.03
2018-11-07T04:47:34.002Z,21.04
2018-11-07T04:48:11.790Z,21.01
2018-11-07T04:48:49.417Z,20.99
2018-11-07T04:49:27.145Z,20.97
2018-11-07T04:50:04.750Z,20.97
2018-11-07T04:50:42.347Z,20.97
2018-11-07T04:51:19.877Z,20.99
2018-11-07T04:51:57.416Z,20.98
2018-11-07T04:52:35.199Z,21.01
2018-11-07T04:53:12.899Z,20.99
2018-11-07T04:53:50.331Z,20.99
2018-11-07T04:54:27.930Z,20.97
2018-11-07T04:55:05.533Z,20.98
2018-11-07T04:55:42.959Z,20.97
2018-11-07T04:56:20.591Z,20.97
2018-11-07T04:56:58.254Z,20.96
2018-11-07T04:58:18.612Z,20.99
2018-11-07T04:58:56.437Z,21.03
2018-11-07T04:59:33.754Z,21.04
2018-11-07T05:00:11.433Z,21.04
2018-11-07T05:00:48.949Z,21.00
2018-11-07T05:01:26.663Z,21.00
2018-11-07T05:02:04.273Z,21.00
2018-11-07T05:03:25.344Z,21.02
2018-11-07T05:04:02.999Z,20.99
2018-11-07T05:04:40.520Z,20.97
2018-11-07T05:05:18.259Z,21.00
2018-11-07T05:05:55.840Z,20.99
2018-11-07T05:06:33.320Z,20.98
2018-11-07T05:07:11.042Z,20.99
2018-11-07T05:07:48.763Z,21.01
2018-11-07T05:08:26.276Z,20.99
2018-11-07T05:09:03.849Z,20.99
2018-11-07T05:09:41.430Z,21.01
2018-11-07T05:10:19.064Z,21.04
2018-11-07T05:10:56.766Z,21.05
2018-11-07T05:11:34.251Z,21.05
2018-11-07T05:12:11.959Z,21.03
2018-11-07T05:12:49.543Z,21.05
2018-11-07T05:13:27.164Z,21.01
2018-11-07T05:14:04.809Z,21.03
2018-11-07T05:14:42.277Z,21.04
2018-11-07T05:15:19.903Z,21.04
2018-11-07T05:15:57.478Z,21.03
2018-11-07T05:16:35.166Z,21.05
2018-11-07T05:17:12.938Z,21.06
2018-11-07T05:17:50.706Z,21.07
2018-11-07T05:18:28.253Z,21.06
2018-11-07T05:19:05.754Z,21.06
2018-11-07T05:19:43.469Z,21.04
2018-11-07T05:20:21.263Z,21.04
2018-11-07T05:20:58.980Z,21.04
2018-11-07T05:21:36.712Z,21.06
2018-11-07T05:22:14.429Z,21.02
2018-11-07T05:22:52.026Z,21.05
2018-11-07T05:23:29.566Z,21.04
2018-11-07T05:24:07.234Z,21.07
2018-11-07T05:24:45.022Z,21.08
2018-11-07T05:25:22.746Z,21.06
2018-11-07T05:26:00.432Z,21.05
2018-11-07T05:26:37.912Z,21.07
2018-11-07T05:27:15.722Z,21.07
2018-11-07T05:27:53.418Z,21.11
2018-11-07T05:28:31.030Z,21.11
2018-11-07T05:29:08.569Z,21.08
2018-11-07T05:29:46.137Z,21.08
2018-11-07T05:30:23.768Z,21.08
2018-11-07T05:31:01.290Z,21.08
2018-11-07T05:31:38.853Z,21.07
2018-11-07T05:32:16.607Z,21.06
2018-11-07T05:32:54.191Z,21.08
2018-11-07T05:33:31.807Z,21.11
2018-11-07T05:34:09.422Z,21.09
2018-11-07T05:34:47.245Z,21.07
2018-11-07T05:35:24.785Z,21.07
2018-11-07T05:36:02.353Z,21.04
2018-11-07T05:36:40.017Z,21.00
2018-11-07T05:37:17.522Z,21.02
2018-11-07T05:37:55.066Z,21.01
2018-11-07T05:38:32.737Z,21.00
2018-11-07T05:39:10.231Z,21.00
2018-11-07T05:39:47.813Z,20.98
2018-11-07T05:40:25.331Z,20.99
2018-11-07T05:41:03.010Z,21.01
2018-11-07T05:41:40.530Z,21.00
2018-11-07T05:42:18.075Z,21.01
2018-11-07T05:42:55.537Z,21.00
2018-11-07T05:43:33.155Z,21.02
2018-11-07T05:44:10.679Z,21.00
2018-11-07T05:44:48.341Z,21.01
2018-11-07T05:45:25.849Z,21.04
2018-11-07T05:46:03.383Z,21.05
2018-11-07T05:46:41.043Z,21.03
2018-11-07T05:47:18.738Z,21.03
2018-11-07T05:47:56.446Z,21.01
2018-11-07T05:48:33.997Z,20.99
2018-11-07T05:49:11.480Z,21.00
2018-11-07T05:49:49.049Z,20.98
2018-11-07T05:50:26.722Z,20.96
2018-11-07T05:51:04.201Z,21.01
2018-11-07T05:51:41.837Z,21.02
2018-11-07T05:52:19.585Z,20.99
2018-11-07T05:52:56.952Z,21.01
2018-11-07T05:53:34.546Z,20.99
2018-11-07T05:54:12.104Z,21.00
2018-11-07T05:54:49.636Z,21.00
2018-11-07T05:55:27.209Z,20.99
2018-11-07T05:56:04.826Z,21.00
2018-11-07T05:56:42.439Z,21.00
2018-11-07T05:57:19.986Z,21.00
2018-11-07T05:57:57.410Z,20.98
2018-11-07T05:58:34.935Z,20.96
2018-11-07T05:59:12.603Z,20.99
2018-11-07T05:59:50.153Z,20.98
2018-11-07T06:00:27.831Z,20.98
2018-11-07T06:01:05.506Z,20.97
2018-11-07T06:01:43.236Z,20.95
2018-11-07T06:02:20.884Z,20.94
2018-11-07T06:02:58.487Z,20.95
2018-11-07T06:03:36.126Z,20.94
2018-11-07T06:04:13.800Z,20.98
2018-11-07T06:04:51.334Z,20.96
2018-11-07T06:05:28.951Z,20.95
2018-11-07T06:06:06.644Z,20.94
2018-11-07T06:06:44.304Z,20.92
2018-11-07T06:07:21.858Z,20.93
2018-11-07T06:07:59.582Z,20.96
2018-11-07T06:08:37.277Z,20.98
2018-11-07T06:09:15.283Z,20.96
2018-11-07T06:09:52.725Z,20.96
2018-11-07T06:10:30.270Z,20.97
2018-11-07T06:11:08.058Z,20.98
2018-11-07T06:11:45.665Z,20.95
2018-11-07T06:12:23.433Z,20.95
2018-11-07T06:13:01.021Z,20.98
2018-11-07T06:13:38.557Z,20.96
2018-11-07T06:14:16.138Z,20.97
2018-11-07T06:14:53.692Z,21.00
2018-11-07T06:15:31.347Z,21.00
2018-11-07T06:16:08.791Z,20.98
2018-11-07T06:16:46.379Z,20.98
2018-11-07T06:17:23.996Z,20.97
2018-11-07T06:18:01.620Z,20.95
2018-11-07T06:18:39.361Z,20.96
2018-11-07T06:19:16.815Z,20.97
2018-11-07T06:19:54.339Z,20.97
2018-11-07T06:20:31.959Z,20.96
2018-11-07T06:21:09.470Z,20.94
2018-11-07T06:21:46.943Z,20.99
2018-11-07T06:22:24.602Z,21.03
2018-11-07T06:23:02.291Z,21.00
2018-11-07T06:23:40.032Z,21.01
2018-11-07T06:24:17.766Z,21.01
2018-11-07T06:24:55.287Z,20.99
2018-11-07T06:25:32.807Z,20.99
2018-11-07T06:26:10.219Z,20.98
2018-11-07T06:26:47.746Z,20.96
2018-11-07T06:27:25.358Z,20.98
2018-11-07T06:28:02.886Z,20.98
2018-11-07T06:28:40.477Z,20.99
2018-11-07T06:29:18.159Z,20.98
2018-11-07T06:29:55.707Z,20.96
2018-11-07T06:30:33.274Z,20.96
2018-11-07T06:31:10.781Z,20.96
2018-11-07T06:31:48.403Z,20.94
2018-11-07T06:32:25.995Z,20.94
2018-11-07T06:33:03.640Z,20.93
2018-11-07T06:33:41.331Z,20.93
2018-11-07T06:34:19.048Z,20.93
2018-11-07T06:34:56.586Z,20.92
2018-11-07T06:35:34.214Z,20.92
2018-11-07T06:36:11.694Z,20.93
2018-11-07T06:36:49.367Z,20.93
2018-11-07T06:37:27.055Z,20.92
2018-11-07T06:38:04.629Z,20.91
2018-11-07T06:38:42.064Z,20.91
2018-11-07T06:39:19.675Z,20.92
2018-11-07T06:39:57.346Z,20.93
2018-11-07T06:40:34.822Z,20.92
2018-11-07T06:41:12.383Z,20.90
2018-11-07T06:41:50.008Z,20.93
2018-11-07T06:42:27.596Z,20.93
2018-11-07T06:43:05.251Z,20.95
2018-11-07T06:43:42.816Z,20.95
2018-11-07T06:44:20.536Z,20.96
2018-11-07T06:44:58.350Z,20.95
2018-11-07T06:45:36.023Z,20.95
2018-11-07T06:46:13.911Z,20.94
2018-11-07T06:46:51.596Z,20.92
2018-11-07T06:47:29.294Z,20.92
2018-11-07T06:48:06.886Z,20.93
2018-11-07T06:48:44.591Z,20.92
2018-11-07T06:49:22.235Z,20.92
2018-11-07T06:49:59.755Z,20.90
2018-11-07T06:50:37.318Z,20.92
2018-11-07T06:51:14.822Z,20.91
2018-11-07T06:51:52.245Z,20.90
2018-11-07T06:52:29.711Z,20.90
2018-11-07T06:53:07.411Z,20.92
2018-11-07T06:53:44.874Z,20.86
2018-11-07T06:54:22.486Z,20.92
2018-11-07T06:55:00.497Z,20.90
2018-11-07T06:55:37.910Z,20.95
2018-11-07T06:56:15.665Z,20.95
2018-11-07T06:56:53.418Z,20.94
2018-11-07T06:57:30.945Z,20.93
2018-11-07T06:58:08.738Z,20.94
2018-11-07T06:58:46.252Z,20.93
2018-11-07T06:59:23.793Z,20.94
2018-11-07T07:00:01.385Z,20.92
2018-11-07T07:00:39.038Z,20.92
2018-11-07T07:01:16.768Z,20.92
2018-11-07T07:01:54.362Z,20.90
2018-11-07T07:02:32.079Z,20.92
2018-11-07T07:03:09.613Z,20.91
2018-11-07T07:03:47.219Z,20.89
2018-11-07T07:04:24.960Z,20.93
2018-11-07T07:05:02.560Z,20.90
2018-11-07T07:05:40.244Z,20.93
2018-11-07T07:06:17.820Z,20.90
2018-11-07T07:06:55.582Z,20.93
2018-11-07T07:07:33.398Z,20.93
2018-11-07T07:08:10.955Z,20.94
2018-11-07T07:08:48.533Z,20.94
2018-11-07T07:09:26.137Z,20.94
2018-11-07T07:10:03.575Z,20.94
2018-11-07T07:10:41.370Z,20.92
2018-11-07T07:11:18.970Z,20.91
2018-11-07T07:11:56.536Z,20.91
2018-11-07T07:12:34.114Z,20.90
2018-11-07T07:13:11.763Z,20.90
2018-11-07T07:13:49.467Z,20.92
2018-11-07T07:14:26.953Z,20.93
2018-11-07T07:15:04.764Z,20.94
2018-11-07T07:15:42.249Z,20.96
2018-11-07T07:16:20.127Z,20.94
2018-11-07T07:16:57.820Z,20.96
2018-11-07T07:17:35.507Z,20.94
2018-11-07T07:18:13.092Z,20.97
2018-11-07T07:18:50.625Z,20.97
2018-11-07T07:19:28.173Z,20.96
2018-11-07T07:20:05.793Z,20.96
2018-11-07T07:20:43.375Z,20.97
2018-11-07T07:21:20.909Z,20.97
2018-11-07T07:21:58.391Z,20.96
2018-11-07T07:22:35.957Z,20.96
2018-11-07T07:23:13.521Z,20.96
2018-11-07T07:23:51.204Z,20.97
2018-11-07T07:24:28.804Z,20.96
2018-11-07T07:25:06.494Z,20.96
2018-11-07T07:25:44.058Z,20.95
2018-11-07T07:26:21.669Z,20.98
2018-11-07T07:26:59.524Z,20.96
2018-11-07T07:27:37.014Z,20.98
2018-11-07T07:28:14.694Z,20.96
2018-11-07T07:28:52.338Z,20.95
2018-11-07T07:29:29.847Z,20.96
2018-11-07T07:30:07.415Z,20.95
2018-11-07T07:30:44.879Z,20.96
2018-11-07T07:31:22.421Z,20.96
2018-11-07T07:31:59.951Z,20.97
2018-11-07T07:32:37.676Z,20.96
2018-11-07T07:33:15.404Z,20.95
2018-11-07T07:33:52.984Z,20.94
2018-11-07T07:34:30.806Z,20.94
2018-11-07T07:35:08.497Z,20.94
2018-11-07T07:35:46.098Z,20.94
2018-11-07T07:36:23.669Z,20.92
2018-11-07T07:37:01.275Z,20.93
2018-11-07T07:37:38.923Z,20.94
2018-11-07T07:38:16.570Z,20.94
2018-11-07T07:38:54.696Z,20.94
2018-11-07T07:39:32.275Z,20.94
2018-11-07T07:40:09.973Z,20.94
2018-11-07T07:40:47.506Z,20.94
2018-11-07T07:41:25.042Z,20.94
2018-11-07T07:42:02.625Z,20.95
2018-11-07T07:42:40.128Z,20.93
2018-11-07T07:43:17.685Z,20.95
2018-11-07T07:43:55.182Z,20.96
2018-11-07T07:44:32.766Z,20.97
2018-11-07T07:45:10.470Z,20.96
2018-11-07T07:45:48.470Z,20.96
2018-11-07T07:46:26.064Z,20.97
2018-11-07T07:47:03.625Z,20.96
2018-11-07T07:47:41.135Z,20.97
2018-11-07T07:48:18.744Z,20.99
2018-11-07T07:48:56.434Z,21.00
2018-11-07T07:49:34.031Z,21.00
2018-11-07T07:50:11.565Z,20.99
2018-11-07T07:50:49.011Z,20.99
2018-11-07T07:51:26.781Z,20.99
2018-11-07T07:52:04.518Z,20.98
2018-11-07T07:52:42.068Z,20.97
2018-11-07T07:53:19.865Z,20.98
2018-11-07T07:53:57.437Z,21.03
2018-11-07T07:54:34.941Z,21.01
2018-11-07T07:55:12.578Z,21.00
2018-11-07T07:55:50.214Z,21.00
2018-11-07T07:56:27.692Z,20.99
2018-11-07T07:57:05.278Z,20.99
2018-11-07T07:57:42.911Z,20.98
2018-11-07T07:58:20.608Z,21.02
2018-11-07T07:58:58.332Z,21.02
2018-11-07T07:59:35.915Z,21.03
2018-11-07T08:00:14.050Z,21.01
2018-11-07T08:00:51.614Z,21.00
2018-11-07T08:01:29.142Z,21.00
2018-11-07T08:02:06.774Z,21.05
2018-11-07T08:02:44.835Z,21.04
2018-11-07T08:03:22.177Z,21.04
2018-11-07T08:03:59.795Z,21.03
2018-11-07T08:04:37.402Z,21.03
2018-11-07T08:05:15.068Z,21.02
2018-11-07T08:05:52.632Z,21.01
2018-11-07T08:06:30.317Z,21.00
2018-11-07T08:07:07.966Z,21.00
2018-11-07T08:07:45.428Z,21.01